• Join FlightAware (Why Join?)
  • Login
  • US Flag 
03:33AM EST


 

Airport Tracker/Info


-or-


 

Live Flight TrackerFlight Track Log ✈ UAL4604 ✈ 30-Apr-2013 ✈ KRIC - KIAH

Flight Track Log - Related Links

Times and Time Zones

All times are in EDT time to prevent confusion due to time zone crossing. See the UAL4604 flight status page for this flight to view local times or setup timezone preferences in your user account.

Time Position Orientation Groundspeed Altitude Reporting Facility
EDT Latitude Longitude Course Direction KTS MPH feet Rate Location/Type
05:15PM 37.5503 -77.4228 286° West 194 223 4,000  Level Washington Center
05:16PM 37.4099 -77.6709 257° West  Level FlightAware Approximate
05:16PM 37.5219 -77.5058 247° West 215 247 5,900  Level Washington Center
05:17PM 37.3877 -77.7927 257° West  Level FlightAware Approximate
05:17PM 37.4892 -77.5967 246° West 253 291 9,100  Level Washington Center
05:18PM 37.3619 -77.9133 254° West  Level FlightAware Approximate
05:18PM 37.4583 -77.6900 247° West 280 322 10,700  Level Washington Center
05:19PM 37.3454 -78.0353 253° West  Level FlightAware Approximate
05:19PM 37.4231 -77.7964 247° West 314 361 11,600  Level Washington Center
05:20PM 37.3789 -77.9181 245° Southwest 342 394 12,800 1,320 Climbing Washington Center
05:21PM 37.3472 -78.0422 252° West 375 432 14,400 1,500 Climbing Washington Center
05:22PM 37.3222 -78.1433 253° West 380 437 15,800 1,620 Climbing Washington Center
05:23PM 37.2964 -78.2783 257° West 380 437 17,600 1,440 Climbing Washington Center
05:24PM 37.2808 -78.4108 262° West 374 430 18,800 1,380 Climbing Washington Center
05:25PM 37.2772 -78.5569 268° West 379 436 20,400 1,440 Climbing Washington Center
05:26PM 37.2717 -78.6950 267° West 389 448 21,800 1,320 Climbing Washington Center
05:27PM 37.2681 -78.8281 268° West 389 448 23,100 1,320 Climbing Washington Center
05:28PM 37.2622 -78.9686 267° West 394 453 24,500 1,380 Climbing Washington Center
05:29PM 37.2586 -79.0911 268° West 394 453 25,900 1,320 Climbing Washington Center
05:30PM 37.2528 -79.2239 267° West 394 453 27,200 1,260 Climbing Washington Center
05:31PM 37.2381 -79.3589 262° West 394 453 28,500 1,260 Climbing Washington Center
05:32PM 37.2233 -79.4911 262° West 389 448 29,800 1,320 Climbing Washington Center
05:33PM 37.2106 -79.6236 263° West 389 448 31,100 1,080 Climbing Washington Center
05:34PM 37.1936 -79.7531 261° West 384 442 32,000 300 Climbing Washington Center
05:35PM 37.1675 -79.9889 262° West 397 457 32,000  Level Atlanta Center
05:36PM 37.1517 -80.1406 263° West 419 482 32,000  Level Atlanta Center
05:37PM 37.1333 -80.2925 261° West 439 505 32,000  Level Atlanta Center
05:38PM 37.0797 -80.4461 246° West 445 512 32,000 -300 Level Atlanta Center
05:39PM 36.9733 -80.5183 208° Southwest 409 471 31,400 -540 Descending Atlanta Center
05:40PM 36.8844 -80.6158 221° Southwest 431 496 31,000 -240 Descending Atlanta Center
05:41PM 36.8211 -80.7481 239° Southwest 426 490 31,000  Level Atlanta Center
05:42PM 36.7681 -80.8644 240° Southwest 439 505 31,000  Level Atlanta Center
05:43PM 36.7047 -81.0042 241° Southwest 434 499 31,000  Level Atlanta Center
05:44PM 36.6414 -81.1386 240° Southwest 441 507 31,000 180 Level Atlanta Center
05:45PM 36.5817 -81.2672 240° Southwest 446 513 31,400 360 Climbing Atlanta Center
05:46PM 36.5200 -81.4011 240° Southwest 447 514 31,800 360 Climbing Atlanta Center
05:47PM 36.4622 -81.5219 239° Southwest 452 520 32,200 360 Climbing Atlanta Center
05:48PM 36.3981 -81.6553 239° Southwest 451 519 32,600 420 Climbing Atlanta Center
05:49PM 36.3358 -81.7886 240° Southwest 451 519 33,100 480 Climbing Atlanta Center
05:50PM 36.2611 -81.9300 237° Southwest 451 519 33,600 600 Climbing Atlanta Center
05:51PM 36.2069 -82.0497 241° Southwest 451 519 34,300 660 Climbing Atlanta Center
05:52PM 36.1442 -82.1772 239° Southwest 440 506 35,000 720 Climbing Atlanta Center
05:53PM 36.0733 -82.3097 237° Southwest 440 506 35,800 480 Climbing Atlanta Center
05:54PM 36.0122 -82.4344 239° Southwest 435 501 36,000 60 Climbing Atlanta Center
05:55PM 35.9553 -82.5483 238° Southwest 435 501 36,000  Level Atlanta Center
05:56PM 35.8942 -82.6750 239° Southwest 435 501 36,000  Level Atlanta Center
05:57PM 35.8308 -82.7992 238° Southwest 435 501 36,000  Level Atlanta Center
05:58PM 35.7694 -82.9228 239° Southwest 435 501 36,000  Level Atlanta Center
05:59PM 35.7100 -83.0439 239° Southwest 428 493 36,000  Level Atlanta Center
06:00PM 35.6506 -83.1647 239° Southwest 428 493 36,000  Level Atlanta Center
06:01PM 35.5908 -83.2853 239° Southwest 406 467 36,000  Level Atlanta Center
06:02PM 35.5331 -83.3983 238° Southwest 400 460 36,000  Level Atlanta Center
06:03PM 35.4731 -83.5133 237° Southwest 400 460 36,000  Level Atlanta Center
06:04PM 35.4172 -83.6283 239° Southwest 400 460 36,000  Level Atlanta Center
06:05PM 35.3592 -83.7383 237° Southwest 400 460 36,000  Level Atlanta Center
06:06PM 35.3008 -83.8478 237° Southwest 394 453 36,000  Level Atlanta Center
06:07PM 35.2467 -83.9600 239° Southwest 394 453 36,000  Level Atlanta Center
06:08PM 35.1906 -84.0667 237° Southwest 394 453 36,000  Level Atlanta Center
06:09PM 35.1361 -84.1708 237° Southwest 389 448 36,000  Level Atlanta Center
06:10PM 35.0797 -84.2800 238° Southwest 389 448 36,000  Level Atlanta Center
06:11PM 35.0272 -84.3836 238° Southwest 378 435 36,000  Level Atlanta Center
06:12PM 34.9789 -84.4797 238° Southwest 378 435 36,000  Level Atlanta Center
06:13PM 34.9222 -84.5858 237° Southwest 378 435 36,000  Level Atlanta Center
06:14PM 34.8675 -84.6894 237° Southwest 373 429 36,000  Level Atlanta Center
06:15PM 34.8125 -84.7900 236° Southwest 373 429 36,000  Level Atlanta Center
06:16PM 34.7575 -84.8933 237° Southwest 368 423 36,000  Level Atlanta Center
06:17PM 34.7025 -84.9989 238° Southwest 368 423 36,000  Level Atlanta Center
06:18PM 34.6558 -85.1019 241° Southwest 362 417 36,000  Level Atlanta Center
06:19PM 34.5922 -85.2069 234° Southwest 369 425 36,000  Level Atlanta Center
06:20PM 34.5369 -85.3122 238° Southwest 375 432 36,000  Level Atlanta Center
06:21PM 34.4817 -85.4172 237° Southwest 375 432 36,000  Level Atlanta Center
06:22PM 34.4239 -85.5244 237° Southwest 375 432 36,000  Level Atlanta Center
06:23PM 34.3725 -85.6319 240° Southwest 375 432 36,000  Level Atlanta Center
06:24PM 34.3169 -85.7339 237° Southwest 370 426 36,000  Level Atlanta Center
06:25PM 34.2508 -85.8406 233° Southwest 370 426 36,000  Level Atlanta Center
06:26PM 34.1950 -85.9425 237° Southwest 364 419 36,000  Level Atlanta Center
06:27PM 34.1389 -86.0467 237° Southwest 370 426 36,000  Level Atlanta Center
06:28PM 34.0808 -86.1506 236° Southwest 370 426 36,000  Level Atlanta Center
06:29PM 34.0247 -86.2544 237° Southwest 370 426 36,000  Level Atlanta Center
06:30PM 33.9667 -86.3581 236° Southwest 370 426 36,000  Level Atlanta Center
06:31PM 33.9103 -86.4617 237° Southwest 370 426 36,000  Level Atlanta Center
06:32PM 33.8519 -86.5653 236° Southwest 370 426 36,000  Level Atlanta Center
06:33PM 33.7933 -86.6708 236° Southwest 370 426 36,000  Level Atlanta Center
06:34PM 33.7367 -86.7742 237° Southwest 370 426 36,000  Level Atlanta Center
06:35PM 33.6781 -86.8769 236° Southwest 370 426 36,000  Level Atlanta Center
06:36PM 33.6336 -86.9903 245° Southwest 370 426 36,000  Level Atlanta Center
06:37PM 33.5953 -87.1064 248° West 376 433 36,000  Level Atlanta Center
06:38PM 33.5569 -87.2244 249° West 381 438 36,000  Level Atlanta Center
06:40PM 33.4694 -87.4833 248° West 385 443 36,000  Level Memphis Center
06:41PM 33.4283 -87.5994 247° West 380 437 36,000  Level Memphis Center
06:42PM 33.3869 -87.7150 247° West 380 437 36,000  Level Memphis Center
06:43PM 33.3475 -87.8281 247° West 380 437 36,000  Level Memphis Center
06:44PM 33.3081 -87.9436 248° West 380 437 36,000  Level Memphis Center
06:45PM 33.2686 -88.0589 248° West 380 437 36,000  Level Memphis Center
06:46PM 33.2267 -88.1769 247° West 380 437 36,000  Level Memphis Center
06:47PM 33.1911 -88.2894 249° West 375 432 36,000  Level Memphis Center
06:48PM 33.1514 -88.4044 248° West 375 432 36,000  Level Memphis Center
06:49PM 33.1114 -88.5194 247° West 375 432 36,000  Level Memphis Center
06:50PM 33.0692 -88.6369 247° West 380 437 36,000  Level Memphis Center
06:51PM 33.0269 -88.7542 247° West 385 443 36,000  Level Memphis Center
06:52PM 32.9844 -88.8714 247° West 385 443 36,000  Level Memphis Center
06:53PM 32.9419 -88.9858 246° West 380 437 36,000  Level Memphis Center
06:54PM 32.8994 -89.1028 247° West 380 437 36,000  Level Memphis Center
06:55PM 32.8567 -89.2247 247° West 385 443 36,000  Level Memphis Center
06:56PM 32.8117 -89.3414 245° Southwest 390 449 36,000  Level Memphis Center
06:57PM 32.7667 -89.4606 246° West 390 449 36,000  Level Memphis Center
06:58PM 32.7236 -89.5819 247° West 397 457 36,000  Level Memphis Center
06:59PM 32.6786 -89.6983 245° Southwest 397 457 36,000  Level Memphis Center
07:00PM 32.6331 -89.8194 246° West 397 457 36,000  Level Memphis Center
07:01PM 32.5897 -89.9406 247° West 397 457 36,000  Level Memphis Center
07:02PM 32.5464 -90.0617 247° West 397 457 36,000  Level Memphis Center
07:03PM 32.5006 -90.1800 245° Southwest 397 457 36,000  Level Memphis Center
07:04PM 32.4403 -90.2908 237° Southwest 397 457 36,000  Level Memphis Center
07:05PM 32.3839 -90.4017 239° Southwest 397 457 36,000  Level Memphis Center
07:06PM 32.3275 -90.5097 238° Southwest 397 457 36,000  Level Memphis Center
07:07PM 32.2686 -90.6250 239° Southwest 403 464 36,000  Level Memphis Center
07:08PM 32.2100 -90.7331 237° Southwest 403 464 36,000  Level Memphis Center
07:09PM 32.1533 -90.8431 239° Southwest 403 464 36,000  Level Memphis Center
07:11PM 32.0928 -90.9622 239° Southwest 399 459 36,000  Level Houston Center
07:12PM 32.0214 -91.0953 238° Southwest 401 461 36,000  Level Houston Center
07:13PM 31.9603 -91.2067 237° Southwest 402 463 36,000  Level Houston Center
07:14PM 31.9003 -91.3178 238° Southwest 401 461 36,000  Level Houston Center
07:15PM 31.8108 -91.3894 214° Southwest 396 456 36,000  Level Houston Center
07:16PM 31.6975 -91.3953 183° South 404 465 36,000  Level Houston Center
07:17PM 31.5833 -91.3992 182° South 407 468 36,000  Level Houston Center
07:18PM 31.4711 -91.4022 181° South 404 465 36,000  Level Houston Center
07:19PM 31.3564 -91.4064 182° South 409 471 36,000 -60 Level Houston Center
07:20PM 31.2169 -91.4122 182° South 414 476 35,900  Descending Houston Center
07:21PM 31.1017 -91.4136 181° South 414 476 36,000  Climbing Houston Center
07:22PM 30.9983 -91.4553 199° South 397 457 36,000  Level Houston Center
07:23PM 30.9039 -91.5197 210° Southwest 391 450 36,000  Level Houston Center
07:24PM 30.8114 -91.5806 209° Southwest 382 440 36,000  Level Houston Center
07:25PM 30.7197 -91.6406 209° Southwest 376 433 36,000  Level Houston Center
07:26PM 30.6286 -91.7000 209° Southwest 373 429 36,000  Level Houston Center
07:27PM 30.5356 -91.7614 210° Southwest 382 440 36,000  Level Houston Center
07:28PM 30.4278 -91.8317 209° Southwest 373 429 36,000  Level Houston Center
07:29PM 30.3381 -91.8903 209° Southwest 369 425 36,000  Level Houston Center
07:30PM 30.2533 -91.9586 215° Southwest 380 437 36,000  Level Houston Center
07:31PM 30.1933 -92.0433 231° Southwest 380 437 36,000  Level Houston Center
07:32PM 30.1303 -92.1397 233° Southwest 377 434 36,000  Level Houston Center
07:33PM 30.0508 -92.2542 231° Southwest 379 436 36,000  Level Houston Center
07:34PM 29.9864 -92.3519 233° Southwest 381 438 36,000  Level Houston Center
07:35PM 29.9200 -92.4478 231° Southwest 383 441 36,000  Level Houston Center
07:36PM 29.8544 -92.5433 232° Southwest 379 436 36,000  Level Houston Center
07:37PM 29.7886 -92.6375 231° Southwest 377 434 36,000  Level Houston Center
07:38PM 29.7239 -92.7311 231° Southwest 375 432 36,000 -60 Level Houston Center
07:39PM 29.6867 -92.8464 250° West 396 456 35,900 -480 Descending Houston Center
07:41PM 29.6667 -92.9719 260° West 400 460 35,100 -1,380 Descending Houston Center
07:42PM 29.6464 -93.1044 260° West 416 479 33,100 -2,400 Descending Houston Center
07:43PM 29.6203 -93.2658 259° West 427 491 30,300 -2,520 Descending Houston Center
07:44PM 29.5981 -93.3981 259° West 425 489 28,000 -2,280 Descending Houston Center
07:45PM 29.5769 -93.5308 260° West 423 487 25,700 -2,280 Descending Houston Center
07:46PM 29.5556 -93.6636 260° West 423 487 23,400 -2,220 Descending Houston Center
07:47PM 29.5342 -93.7953 259° West 421 484 21,200 -2,100 Descending Houston Center
07:48PM 29.5186 -93.9194 262° West 408 470 19,100 -2,220 Descending Houston Center
07:48PM 29.5197 -94.0322 271° West 394 453 17,200 -2,220 Descending Houston Center
07:50PM 29.5264 -94.1828 273° West 383 441 14,700 -2,100 Descending Houston Center
07:51PM 29.5306 -94.3072 272° West 376 433 12,500 -2,100 Descending Houston Center
07:52PM 29.5650 -94.4206 289° West 369 425 10,500 -1,200 Descending Houston Center
07:53PM 29.6089 -94.5253 296° West 370 426 10,100 -240 Descending Houston Center
07:54PM 29.6536 -94.6261 297° West 367 422 10,100  Level Houston Center
07:55PM 29.6986 -94.7325 296° West 371 427 10,100 -120 Level Houston Center
07:56PM 29.7392 -94.8289 296° West 296 341 9,900 -1,020 Descending Houston Center
07:57PM 29.7744 -94.9111 296° West 284 327 8,200 -1,680 Descending Houston Center
07:58PM 29.8097 -94.9958 296° West 285 328 6,500 -1,080 Descending Houston Center
07:59PM 29.8422 -95.0736 296° West 277 319 6,100 -240 Descending Houston Center
08:00PM 29.8772 -95.1561 296° West 271 312 6,100  Level Houston Center
08:01PM 29.8992 -95.2353 288° West 267 307 6,100  Level Houston Center
08:02PM 29.8992 -95.3247 270° West 274 315 6,100 -60 Level Houston Center
08:03PM 29.9003 -95.4064 271° West 283 326 6,000 -120 Descending Houston Center
08:03PM 29.9058 -95.4186 298° West 280 322 6,000  Level Houston Center
08:04PM 29.9639 -95.4350 346° North 263 303 6,000 60 Level Houston Center
08:04PM 29.9869 -95.4344 North 256 295 6,100  Climbing Houston Center
08:05PM 30.0242 -95.4300 North 197 227 6,000 -300 Descending Houston Center
08:05PM 30.0439 -95.4294 North 207 238 5,800 -900 Descending Houston Center
08:06PM 30.0797 -95.4403 345° North 215 247 5,100 -1,140 Descending Houston Center
08:06PM 30.0903 -95.4594 302° West 212 244 4,700 -900 Descending Houston Center
08:07PM 30.1025 -95.5053 287° West 198 228 4,100 -720 Descending Houston Center
08:07PM 30.1058 -95.5200 285° West 205 236 4,000 -900 Descending Houston Center
08:08PM 30.0725 -95.5475 216° Southwest 182 209 3,100 -540 Descending Houston Center
08:09PM 30.0375 -95.5081 136° Southeast 188 216 3,100 -540 Level Houston Center
08:10PM 30.0097 -95.4561 122° Southeast 181 208 2,100 -1,020 Descending Houston Center